createdAt,value
2023-04-24T00:01:44.658Z,14.60
2023-04-24T00:04:12.262Z,14.60
2023-04-24T00:06:39.693Z,14.60
2023-04-24T00:09:07.071Z,14.60
2023-04-24T00:11:34.297Z,14.60
2023-04-24T00:14:01.725Z,14.60
2023-04-24T00:16:29.322Z,14.60
2023-04-24T00:18:56.681Z,14.60
2023-04-24T00:21:26.524Z,14.60
2023-04-24T00:23:54.354Z,14.60
2023-04-24T00:26:21.654Z,14.60
2023-04-24T00:28:48.916Z,14.60
2023-04-24T00:31:16.152Z,14.60
2023-04-24T00:33:43.563Z,14.60
2023-04-24T00:36:10.922Z,14.60
2023-04-24T00:38:38.127Z,14.60
2023-04-24T00:41:05.772Z,14.60
2023-04-24T00:43:33.062Z,14.60
2023-04-24T00:46:02.589Z,14.60
2023-04-24T00:48:30.462Z,14.50
2023-04-24T00:50:59.601Z,14.50
2023-04-24T00:53:26.978Z,14.50
2023-04-24T00:55:54.596Z,14.50
2023-04-24T00:58:21.972Z,14.40
2023-04-24T01:00:53.975Z,14.40
2023-04-24T01:03:23.728Z,14.40
2023-04-24T01:05:51.443Z,14.40
2023-04-24T01:08:20.985Z,14.30
2023-04-24T01:10:49.492Z,14.30
2023-04-24T01:13:16.898Z,14.30
2023-04-24T01:15:46.275Z,14.20
2023-04-24T01:18:14.456Z,14.20
2023-04-24T01:20:43.542Z,14.20
2023-04-24T01:23:11.464Z,14.10
2023-04-24T01:25:38.797Z,14.10
2023-04-24T01:28:06.178Z,14.00
2023-04-24T01:30:33.520Z,14.00
2023-04-24T01:33:01.736Z,14.00
2023-04-24T01:35:29.166Z,14.00
2023-04-24T01:37:56.545Z,14.00
2023-04-24T01:40:23.992Z,14.00
2023-04-24T01:42:52.032Z,14.00
2023-04-24T01:45:19.433Z,13.90
2023-04-24T01:47:47.692Z,13.90
2023-04-24T01:50:15.111Z,13.90
2023-04-24T01:52:43.236Z,13.90
2023-04-24T01:55:11.481Z,13.90
2023-04-24T01:57:39.040Z,13.90
2023-04-24T02:00:08.130Z,13.90
2023-04-24T02:02:44.944Z,13.90
2023-04-24T02:05:14.179Z,13.90
2023-04-24T02:07:41.496Z,13.80
2023-04-24T02:10:10.842Z,13.80
2023-04-24T02:12:43.024Z,13.80
2023-04-24T02:15:10.894Z,13.80
2023-04-24T02:17:38.860Z,13.80
2023-04-24T02:20:07.821Z,13.80
2023-04-24T02:22:35.082Z,13.70
2023-04-24T02:25:03.480Z,13.70
2023-04-24T02:27:31.291Z,13.70
2023-04-24T02:29:58.787Z,13.70
2023-04-24T02:32:26.157Z,13.70
2023-04-24T02:34:53.570Z,13.70
2023-04-24T02:37:21.038Z,13.70
2023-04-24T02:39:48.278Z,13.70
2023-04-24T02:42:16.474Z,13.70
2023-04-24T02:44:43.754Z,13.70
2023-04-24T02:47:11.158Z,13.70
2023-04-24T02:49:38.400Z,13.70
2023-04-24T02:52:06.118Z,13.70
2023-04-24T02:54:33.337Z,13.70
2023-04-24T02:57:01.986Z,13.70
2023-04-24T02:59:29.889Z,13.70
2023-04-24T03:01:57.077Z,13.80
2023-04-24T03:04:24.485Z,13.80
2023-04-24T03:06:53.824Z,13.80
2023-04-24T03:09:24.527Z,13.80
2023-04-24T03:11:51.800Z,13.80
2023-04-24T03:14:19.036Z,13.80
2023-04-24T03:16:46.449Z,13.80
2023-04-24T03:19:13.792Z,13.80
2023-04-24T03:22:02.313Z,13.70
2023-04-24T03:24:31.642Z,13.70
2023-04-24T03:26:59.308Z,13.70
2023-04-24T03:29:46.064Z,13.70
2023-04-24T03:32:13.782Z,13.70
2023-04-24T03:34:41.051Z,13.70
2023-04-24T03:37:13.539Z,13.70
2023-04-24T03:39:45.624Z,13.80
2023-04-24T03:42:13.998Z,13.80
2023-04-24T03:44:51.206Z,13.80
2023-04-24T03:47:20.022Z,13.80
2023-04-24T03:49:48.507Z,13.80
2023-04-24T03:52:15.910Z,13.80
2023-04-24T03:54:43.810Z,13.80
2023-04-24T03:57:12.663Z,13.80
2023-04-24T03:59:48.019Z,13.80
2023-04-24T04:02:19.040Z,13.80
2023-04-24T04:04:46.782Z,13.80
2023-04-24T04:07:14.478Z,13.80
2023-04-24T04:09:42.170Z,13.80
2023-04-24T04:12:09.807Z,13.80
2023-04-24T04:14:39.461Z,13.80
2023-04-24T04:17:06.776Z,13.80
2023-04-24T04:19:34.479Z,13.80
2023-04-24T04:22:01.896Z,13.70
2023-04-24T04:24:41.731Z,13.80
2023-04-24T04:27:10.602Z,13.80
2023-04-24T04:29:46.693Z,13.80
2023-04-24T04:32:16.343Z,13.80
2023-04-24T04:34:46.155Z,13.80
2023-04-24T04:37:13.793Z,13.80
2023-04-24T04:39:54.537Z,13.80
2023-04-24T04:42:25.941Z,13.80
2023-04-24T04:44:54.105Z,13.80
2023-04-24T04:47:29.657Z,13.70
2023-04-24T04:49:58.179Z,13.70
2023-04-24T04:52:28.560Z,13.70
2023-04-24T04:55:25.339Z,13.70
2023-04-24T04:58:25.293Z,13.70
2023-04-24T05:00:58.258Z,13.70
2023-04-24T05:03:37.151Z,13.70
2023-04-24T05:06:08.350Z,13.70
2023-04-24T05:08:38.921Z,13.70
2023-04-24T05:11:09.851Z,13.70
2023-04-24T05:13:41.082Z,13.70
2023-04-24T05:16:14.264Z,13.70
2023-04-24T05:18:42.394Z,13.70
2023-04-24T05:21:12.456Z,13.70
2023-04-24T05:23:42.586Z,13.80
2023-04-24T05:26:15.057Z,13.70
2023-04-24T05:28:42.600Z,13.80
2023-04-24T05:31:13.447Z,13.80
2023-04-24T05:33:41.030Z,13.80
2023-04-24T05:36:08.648Z,13.80
2023-04-24T05:38:36.238Z,13.80
2023-04-24T05:41:03.905Z,13.80
2023-04-24T05:43:31.386Z,13.90
2023-04-24T05:45:58.952Z,13.90
2023-04-24T05:48:27.045Z,14.00
2023-04-24T05:50:54.638Z,14.10
2023-04-24T05:53:22.539Z,14.20
2023-04-24T05:55:50.586Z,14.20
2023-04-24T05:58:18.224Z,14.40
2023-04-24T06:00:48.003Z,14.50
2023-04-24T06:03:15.879Z,14.60
2023-04-24T06:05:43.788Z,14.70
2023-04-24T06:08:12.514Z,14.80
2023-04-24T06:10:41.220Z,15.00
2023-04-24T06:13:09.872Z,15.10
2023-04-24T06:15:41.663Z,15.20
2023-04-24T06:18:13.464Z,15.30
2023-04-24T06:20:42.718Z,15.30
2023-04-24T06:23:10.867Z,15.40
2023-04-24T06:25:39.426Z,15.50
2023-04-24T06:28:06.929Z,15.60
2023-04-24T06:30:34.380Z,15.70
2023-04-24T06:33:12.834Z,15.80
2023-04-24T06:35:47.556Z,15.90
2023-04-24T06:38:15.143Z,15.90
2023-04-24T06:40:45.046Z,16.00
2023-04-24T06:43:12.853Z,16.10
2023-04-24T06:45:40.801Z,16.20
2023-04-24T06:48:08.530Z,16.30
2023-04-24T06:50:36.254Z,16.30
2023-04-24T06:53:03.957Z,16.40
2023-04-24T06:55:31.795Z,16.40
2023-04-24T06:57:59.609Z,16.50
2023-04-24T07:00:27.109Z,16.50
2023-04-24T07:02:54.654Z,16.50
2023-04-24T07:05:22.181Z,16.50
2023-04-24T07:07:50.612Z,16.40
2023-04-24T07:10:19.074Z,16.40
2023-04-24T07:12:47.310Z,16.30
2023-04-24T07:15:14.839Z,16.30
2023-04-24T07:17:44.602Z,16.10
2023-04-24T07:20:12.810Z,16.00
2023-04-24T07:22:40.517Z,15.90
2023-04-24T07:25:09.439Z,15.90
2023-04-24T07:27:37.107Z,15.80
2023-04-24T07:30:05.863Z,15.70
2023-04-24T07:32:33.261Z,15.70
2023-04-24T07:35:00.976Z,15.60
2023-04-24T07:37:29.461Z,15.60
2023-04-24T07:39:57.151Z,15.70
2023-04-24T07:42:24.601Z,15.70
2023-04-24T07:44:52.180Z,15.90
2023-04-24T07:47:19.698Z,16.10
2023-04-24T07:49:47.539Z,16.20
2023-04-24T07:52:15.058Z,16.40
2023-04-24T07:54:44.144Z,16.70
2023-04-24T07:57:11.826Z,17.00
2023-04-24T07:59:39.272Z,17.30
2023-04-24T08:02:07.447Z,17.60
2023-04-24T08:04:35.150Z,18.00
2023-04-24T08:07:02.694Z,18.20
2023-04-24T08:09:30.334Z,18.40
2023-04-24T08:11:57.733Z,18.40
2023-04-24T08:14:25.216Z,18.30
2023-04-24T08:16:56.815Z,18.20
2023-04-24T08:19:24.746Z,18.20
2023-04-24T08:21:52.159Z,18.10
2023-04-24T08:24:19.688Z,18.10
2023-04-24T08:26:47.174Z,18.00
2023-04-24T08:29:14.600Z,18.10
2023-04-24T08:31:42.435Z,18.10
2023-04-24T08:34:11.094Z,18.20
2023-04-24T08:36:46.394Z,18.10
2023-04-24T08:39:15.646Z,18.20
2023-04-24T08:41:44.151Z,18.20
2023-04-24T08:44:12.402Z,18.30
2023-04-24T08:46:41.742Z,18.30
2023-04-24T08:49:09.393Z,18.40
2023-04-24T08:51:38.760Z,18.40
2023-04-24T08:54:06.516Z,18.40
2023-04-24T08:56:35.292Z,18.40
2023-04-24T08:59:03.032Z,18.40
2023-04-24T09:01:32.969Z,18.50
2023-04-24T09:04:04.710Z,18.60
2023-04-24T09:06:33.141Z,18.70
2023-04-24T09:09:04.483Z,18.90
2023-04-24T09:11:33.566Z,19.10
2023-04-24T09:14:02.349Z,19.20
2023-04-24T09:16:30.790Z,19.30
2023-04-24T09:18:58.600Z,19.40
2023-04-24T09:21:35.870Z,19.60
2023-04-24T09:24:06.317Z,19.70
2023-04-24T09:26:36.671Z,19.70
2023-04-24T09:29:05.368Z,19.60
2023-04-24T09:31:32.778Z,19.40
2023-04-24T09:34:02.641Z,19.20
2023-04-24T09:36:34.165Z,18.90
2023-04-24T09:39:02.976Z,18.70
2023-04-24T09:41:30.740Z,18.40
2023-04-24T09:44:02.514Z,18.30
2023-04-24T09:46:32.876Z,18.10
2023-04-24T09:49:17.139Z,18.00
2023-04-24T09:51:44.737Z,17.70
2023-04-24T09:54:19.400Z,17.70
2023-04-24T09:56:48.883Z,17.60
2023-04-24T09:59:18.299Z,17.50
2023-04-24T10:01:46.627Z,17.60
2023-04-24T10:04:23.925Z,17.60
2023-04-24T10:06:53.347Z,17.60
2023-04-24T10:09:22.715Z,17.60
2023-04-24T10:11:52.538Z,17.60
2023-04-24T10:14:25.146Z,17.60
2023-04-24T10:16:55.665Z,17.60
2023-04-24T10:19:27.020Z,17.70
2023-04-24T10:21:56.612Z,17.70
2023-04-24T10:24:24.144Z,17.80
2023-04-24T10:26:51.755Z,17.80
2023-04-24T10:29:20.918Z,17.70
2023-04-24T10:31:48.713Z,17.70
2023-04-24T10:34:19.262Z,17.70
2023-04-24T10:36:51.841Z,17.70
2023-04-24T10:39:20.685Z,17.70
2023-04-24T10:41:58.809Z,17.80
2023-04-24T10:44:26.412Z,17.90
2023-04-24T10:46:56.181Z,18.00
2023-04-24T10:49:32.259Z,18.00
2023-04-24T10:52:06.565Z,18.00
2023-04-24T10:54:41.978Z,18.00
2023-04-24T10:57:22.948Z,18.00
2023-04-24T11:00:10.396Z,17.90
2023-04-24T11:02:40.047Z,17.90
2023-04-24T11:05:08.541Z,17.90
2023-04-24T11:08:15.176Z,17.90
2023-04-24T11:10:47.638Z,17.80
2023-04-24T11:13:22.215Z,17.80
2023-04-24T11:16:13.175Z,17.70
2023-04-24T11:18:46.028Z,17.70
2023-04-24T11:21:14.339Z,17.70
2023-04-24T11:23:42.164Z,17.60
2023-04-24T11:26:15.173Z,17.50
2023-04-24T11:28:49.990Z,17.40
2023-04-24T11:31:42.023Z,17.30
2023-04-24T11:34:11.781Z,17.30
2023-04-24T11:36:40.180Z,17.30
2023-04-24T11:39:07.759Z,17.30
2023-04-24T11:41:36.503Z,17.40
2023-04-24T11:44:06.598Z,17.40
2023-04-24T11:46:34.096Z,17.50
2023-04-24T11:49:01.823Z,17.60
2023-04-24T11:51:33.842Z,17.70
2023-04-24T11:54:09.121Z,17.90
2023-04-24T11:56:36.496Z,18.00
2023-04-24T11:59:05.559Z,18.00
2023-04-24T12:01:46.889Z,18.10
2023-04-24T12:04:15.682Z,18.20
2023-04-24T12:07:03.101Z,18.20
2023-04-24T12:09:47.604Z,18.30
2023-04-24T12:12:17.670Z,18.40
2023-04-24T12:14:49.778Z,18.40
2023-04-24T12:17:18.074Z,18.50
2023-04-24T12:19:49.532Z,18.50
2023-04-24T12:22:17.417Z,18.60
2023-04-24T12:25:03.161Z,18.60
2023-04-24T12:27:33.154Z,18.50
2023-04-24T12:30:02.585Z,18.50
2023-04-24T12:32:29.970Z,18.50
2023-04-24T12:34:57.628Z,18.40
2023-04-24T12:37:26.628Z,18.20
2023-04-24T12:40:08.387Z,18.10
2023-04-24T12:42:37.303Z,18.00
2023-04-24T12:45:08.927Z,17.90
2023-04-24T12:47:37.291Z,17.90
2023-04-24T12:50:05.697Z,17.80
2023-04-24T12:52:33.528Z,17.90
2023-04-24T12:55:02.068Z,18.00
2023-04-24T12:57:31.057Z,18.10
2023-04-24T12:59:59.739Z,18.10
2023-04-24T13:02:31.338Z,18.20
2023-04-24T13:04:59.920Z,18.20
2023-04-24T13:07:28.349Z,18.20
2023-04-24T13:09:57.000Z,18.10
2023-04-24T13:12:25.053Z,18.00
2023-04-24T13:14:52.899Z,17.90
2023-04-24T13:17:20.789Z,17.80
2023-04-24T13:19:51.873Z,17.70
2023-04-24T13:22:22.374Z,17.60
2023-04-24T13:24:49.974Z,17.50
2023-04-24T13:27:18.472Z,17.40
2023-04-24T13:29:46.359Z,17.30
2023-04-24T13:32:13.940Z,17.20
2023-04-24T13:34:41.427Z,17.20
2023-04-24T13:37:09.080Z,17.10
2023-04-24T13:39:36.589Z,17.10
2023-04-24T13:42:05.071Z,17.10
2023-04-24T13:44:32.788Z,17.10
2023-04-24T13:47:00.692Z,17.20
2023-04-24T13:49:28.540Z,17.30
2023-04-24T13:51:57.087Z,17.20
2023-04-24T13:54:26.698Z,17.20
2023-04-24T13:56:54.728Z,17.20
2023-04-24T13:59:22.649Z,17.10
2023-04-24T14:01:50.399Z,17.10
2023-04-24T14:04:18.262Z,17.20
2023-04-24T14:06:45.889Z,17.20
2023-04-24T14:09:13.849Z,17.30
2023-04-24T14:11:41.673Z,17.40
2023-04-24T14:14:09.243Z,17.50
2023-04-24T14:16:36.617Z,17.50
2023-04-24T14:19:05.880Z,17.50
2023-04-24T14:21:33.848Z,17.50
2023-04-24T14:24:01.252Z,17.60
2023-04-24T14:26:28.898Z,17.50
2023-04-24T14:29:03.972Z,17.50
2023-04-24T14:31:38.804Z,17.60
2023-04-24T14:34:06.091Z,17.70
2023-04-24T14:36:33.454Z,17.70
2023-04-24T14:39:00.808Z,17.70
2023-04-24T14:41:28.000Z,17.70
2023-04-24T14:43:55.326Z,17.60
2023-04-24T14:46:22.757Z,17.60
2023-04-24T14:48:50.010Z,17.60
2023-04-24T14:51:17.353Z,17.50
2023-04-24T14:53:44.842Z,17.50
2023-04-24T14:56:12.376Z,17.50
2023-04-24T14:58:39.892Z,17.40
2023-04-24T15:01:07.524Z,17.40
2023-04-24T15:03:35.112Z,17.40
2023-04-24T15:06:02.863Z,17.40
2023-04-24T15:08:30.515Z,17.30
2023-04-24T15:10:58.057Z,17.10
2023-04-24T15:13:25.979Z,16.90
2023-04-24T15:15:53.426Z,16.60
2023-04-24T15:18:20.775Z,16.30
2023-04-24T15:20:48.140Z,16.00
2023-04-24T15:23:15.635Z,15.70
2023-04-24T15:25:43.099Z,15.40
2023-04-24T15:28:11.057Z,15.20
2023-04-24T15:30:38.526Z,15.10
2023-04-24T15:33:06.619Z,15.00
2023-04-24T15:35:34.827Z,14.90
2023-04-24T15:38:03.308Z,14.80
2023-04-24T15:40:31.198Z,14.90
2023-04-24T15:42:58.817Z,14.90
2023-04-24T15:45:26.272Z,14.80
2023-04-24T15:47:53.742Z,14.90
2023-04-24T15:50:22.613Z,14.90
2023-04-24T15:52:50.238Z,15.10
2023-04-24T15:55:17.795Z,15.20
2023-04-24T15:57:45.357Z,15.30
2023-04-24T16:00:13.653Z,15.40
2023-04-24T16:02:41.150Z,15.50
2023-04-24T16:05:09.563Z,15.50
2023-04-24T16:07:38.671Z,15.50
2023-04-24T16:10:07.144Z,15.50
2023-04-24T16:12:34.877Z,15.50
2023-04-24T16:15:03.057Z,15.40
2023-04-24T16:17:30.561Z,15.50
2023-04-24T16:19:57.942Z,15.50
2023-04-24T16:22:25.347Z,15.50
2023-04-24T16:24:53.418Z,15.50
2023-04-24T16:27:20.989Z,15.50
2023-04-24T16:29:48.486Z,15.50
2023-04-24T16:32:16.190Z,15.30
2023-04-24T16:34:43.781Z,15.00
2023-04-24T16:37:12.210Z,14.80
2023-04-24T16:39:43.963Z,14.60
2023-04-24T16:42:15.621Z,14.40
2023-04-24T16:44:43.282Z,14.30
2023-04-24T16:47:14.086Z,14.20
2023-04-24T16:49:41.886Z,14.20
2023-04-24T16:52:10.790Z,14.30
2023-04-24T16:54:38.069Z,14.30
2023-04-24T16:57:07.681Z,14.30
2023-04-24T16:59:35.330Z,14.30
2023-04-24T17:02:02.722Z,14.30
2023-04-24T17:04:30.462Z,14.30
2023-04-24T17:06:58.050Z,14.30
2023-04-24T17:09:25.560Z,14.30
2023-04-24T17:11:53.031Z,14.40
2023-04-24T17:14:20.487Z,14.30
2023-04-24T17:16:47.821Z,14.30
2023-04-24T17:19:15.602Z,14.30
2023-04-24T17:21:42.784Z,14.30
2023-04-24T17:24:10.117Z,14.20
2023-04-24T17:26:37.676Z,14.20
2023-04-24T17:29:05.421Z,14.10
2023-04-24T17:31:32.876Z,14.10
2023-04-24T17:34:00.341Z,14.10
2023-04-24T17:36:27.827Z,14.10
2023-04-24T17:38:55.096Z,14.10
2023-04-24T17:41:22.643Z,14.00
2023-04-24T17:43:50.005Z,14.00
2023-04-24T17:46:17.915Z,14.00
2023-04-24T17:48:46.985Z,14.00
2023-04-24T17:51:15.807Z,14.00
2023-04-24T17:53:43.304Z,13.90
2023-04-24T17:56:10.674Z,13.80
2023-04-24T17:58:38.039Z,13.70
2023-04-24T18:01:05.695Z,13.60
2023-04-24T18:03:33.277Z,13.50
2023-04-24T18:06:00.797Z,13.30
2023-04-24T18:08:28.197Z,13.20
2023-04-24T18:10:55.907Z,13.10
2023-04-24T18:13:23.250Z,13.00
2023-04-24T18:15:50.922Z,13.00
2023-04-24T18:18:18.503Z,12.90
2023-04-24T18:20:46.584Z,12.90
2023-04-24T18:23:14.011Z,12.80
2023-04-24T18:25:41.315Z,12.80
2023-04-24T18:28:08.743Z,12.80
2023-04-24T18:30:36.647Z,12.80
2023-04-24T18:33:04.737Z,12.80
2023-04-24T18:35:32.281Z,12.80
2023-04-24T18:37:59.849Z,12.80
2023-04-24T18:40:27.273Z,12.80
2023-04-24T18:42:56.744Z,12.80
2023-04-24T18:45:24.137Z,12.80
2023-04-24T18:47:51.789Z,12.80
2023-04-24T18:50:19.375Z,12.80
2023-04-24T18:52:47.141Z,12.80
2023-04-24T18:55:14.656Z,12.80
2023-04-24T18:57:42.054Z,12.80
2023-04-24T19:00:09.821Z,12.70
2023-04-24T19:02:37.316Z,12.70
2023-04-24T19:05:05.030Z,12.70
2023-04-24T19:07:32.633Z,12.70
2023-04-24T19:09:59.943Z,12.70
2023-04-24T19:12:27.404Z,12.60
2023-04-24T19:14:56.086Z,12.60
2023-04-24T19:17:25.155Z,12.60
2023-04-24T19:19:52.942Z,12.50
2023-04-24T19:22:23.131Z,12.50
2023-04-24T19:24:50.672Z,12.40
2023-04-24T19:27:18.182Z,12.40
2023-04-24T19:29:46.032Z,12.30
2023-04-24T19:32:13.536Z,12.30
2023-04-24T19:34:41.115Z,12.20
2023-04-24T19:37:08.690Z,12.20
2023-04-24T19:39:35.988Z,12.10
2023-04-24T19:42:07.225Z,12.00
2023-04-24T19:44:35.028Z,11.90
2023-04-24T19:47:02.809Z,11.90
2023-04-24T19:49:30.706Z,11.80
2023-04-24T19:51:58.134Z,11.80
2023-04-24T19:54:26.075Z,11.80
2023-04-24T19:56:53.270Z,11.80
2023-04-24T19:59:20.995Z,11.80
2023-04-24T20:01:48.547Z,11.80
2023-04-24T20:04:16.280Z,11.80
2023-04-24T20:06:43.802Z,11.80
2023-04-24T20:09:11.185Z,11.70
2023-04-24T20:11:38.580Z,11.70
2023-04-24T20:14:06.196Z,11.70
2023-04-24T20:16:33.475Z,11.70
2023-04-24T20:19:00.962Z,11.70
2023-04-24T20:21:28.874Z,11.60
2023-04-24T20:23:56.625Z,11.70
2023-04-24T20:26:23.829Z,11.70
2023-04-24T20:28:51.432Z,11.70
2023-04-24T20:31:19.704Z,11.70
2023-04-24T20:33:47.211Z,11.80
2023-04-24T20:36:14.458Z,11.80
2023-04-24T20:38:41.716Z,11.80
2023-04-24T20:41:10.176Z,11.80
2023-04-24T20:43:37.548Z,11.80
2023-04-24T20:46:05.521Z,11.80
2023-04-24T20:48:32.963Z,11.70
2023-04-24T20:51:00.359Z,11.70
2023-04-24T20:53:28.386Z,11.70
2023-04-24T20:55:55.761Z,11.60
2023-04-24T20:58:23.792Z,11.60
2023-04-24T21:00:51.745Z,11.50
2023-04-24T21:03:19.656Z,11.50
2023-04-24T21:05:47.110Z,11.50
2023-04-24T21:08:14.716Z,11.50
2023-04-24T21:10:42.018Z,11.50
2023-04-24T21:13:09.473Z,11.50
2023-04-24T21:15:36.998Z,11.50
2023-04-24T21:18:04.984Z,11.50
2023-04-24T21:20:32.554Z,11.60
2023-04-24T21:22:59.937Z,11.60
2023-04-24T21:25:27.900Z,11.70
2023-04-24T21:27:56.057Z,11.70
2023-04-24T21:30:23.543Z,11.70
2023-04-24T21:32:52.127Z,11.70
2023-04-24T21:35:19.846Z,11.70
2023-04-24T21:37:47.223Z,11.80
2023-04-24T21:40:16.000Z,11.80
2023-04-24T21:42:43.503Z,11.80
2023-04-24T21:45:11.368Z,11.80
2023-04-24T21:47:39.000Z,11.80
2023-04-24T21:50:07.094Z,11.80
2023-04-24T21:52:34.574Z,11.80
2023-04-24T21:55:02.026Z,11.70
2023-04-24T21:57:29.759Z,11.70
2023-04-24T21:59:57.151Z,11.70
2023-04-24T22:02:24.676Z,11.70
2023-04-24T22:04:52.845Z,11.70
2023-04-24T22:07:20.516Z,11.60
2023-04-24T22:09:47.882Z,11.60
2023-04-24T22:12:15.310Z,11.50
2023-04-24T22:14:42.733Z,11.50
2023-04-24T22:17:10.365Z,11.50
2023-04-24T22:19:37.779Z,11.50
2023-04-24T22:22:05.210Z,11.50
2023-04-24T22:24:32.471Z,11.50
2023-04-24T22:26:59.833Z,11.50
2023-04-24T22:29:27.138Z,11.50
2023-04-24T22:31:56.628Z,11.50
2023-04-24T22:34:24.225Z,11.50
2023-04-24T22:36:51.407Z,11.50
2023-04-24T22:39:19.604Z,11.50
2023-04-24T22:41:47.441Z,11.50
2023-04-24T22:44:14.897Z,11.50
2023-04-24T22:46:42.089Z,11.50
2023-04-24T22:49:10.337Z,11.50
2023-04-24T22:51:37.624Z,11.50
2023-04-24T22:54:05.207Z,11.50
2023-04-24T22:56:33.562Z,11.40
2023-04-24T22:59:00.859Z,11.50
2023-04-24T23:01:29.289Z,11.40
2023-04-24T23:03:56.662Z,11.50
2023-04-24T23:06:23.970Z,11.50
2023-04-24T23:08:51.196Z,11.50
2023-04-24T23:11:19.806Z,11.50
2023-04-24T23:13:47.325Z,11.60
2023-04-24T23:16:14.688Z,11.60
2023-04-24T23:18:42.054Z,11.60
2023-04-24T23:21:09.382Z,11.60
2023-04-24T23:23:36.586Z,11.60
2023-04-24T23:26:04.204Z,11.70
2023-04-24T23:28:31.586Z,11.60
2023-04-24T23:30:58.920Z,11.60
2023-04-24T23:33:26.233Z,11.70
2023-04-24T23:35:53.493Z,11.70
2023-04-24T23:38:20.842Z,11.70
2023-04-24T23:40:50.411Z,11.70
2023-04-24T23:43:18.504Z,11.70
2023-04-24T23:45:46.116Z,11.70
2023-04-24T23:48:13.505Z,11.70
2023-04-24T23:50:40.847Z,11.70
2023-04-24T23:53:08.133Z,11.70
2023-04-24T23:55:35.730Z,11.70
2023-04-24T23:58:03.777Z,11.70
